Time;durP1;ratioP1;P1;durP2;ratioP2;P2;SDS_P1;SDS_P2;PMS_P1;PMS_P2;Temp;Humidity;BMP_temperature;BMP_pressure;BME280_temperature;BME280_humidity;BME280_pressure;Samples;Min_cycle;Max_cycle;Signal;HPM_P1;HPM_P2
2022/10/18 00:00:54;;;;;;;7.47;4.93;;;17.60;58.60;;;;;;20344;6938;279994;-93
2022/10/18 00:03:21;;;;;;;7.70;5.10;;;17.90;58.00;;;;;;20381;6925;310242;-95
2022/10/18 00:05:46;;;;;;;10.63;5.13;;;17.80;57.90;;;;;;20321;6925;280237;-94
2022/10/18 00:08:15;;;;;;;8.00;5.10;;;18.00;57.40;;;;;;20309;6924;281665;-95
2022/10/18 00:10:40;;;;;;;7.87;4.57;;;18.20;57.20;;;;;;20269;6939;316953;-94
2022/10/18 00:13:06;;;;;;;8.07;4.55;;;18.30;56.90;;;;;;20255;6939;310552;-93
2022/10/18 00:15:31;;;;;;;8.80;4.80;;;18.40;56.70;;;;;;20316;6925;281632;-94
2022/10/18 00:17:57;;;;;;;5.27;4.50;;;18.40;56.40;;;;;;20268;6939;310439;-95
2022/10/18 00:20:23;;;;;;;7.27;4.60;;;18.50;55.90;;;;;;20322;6924;280956;-94
2022/10/18 00:22:48;;;;;;;5.20;4.10;;;18.60;55.50;;;;;;20481;6939;119902;-95
2022/10/18 00:25:14;;;;;;;7.00;4.43;;;18.30;55.90;;;;;;20519;6925;118144;-94
2022/10/18 00:27:39;;;;;;;7.10;4.10;;;18.00;56.80;;;;;;20518;6924;119924;-94
2022/10/18 00:30:05;;;;;;;6.63;3.90;;;17.70;57.40;;;;;;20498;6939;120505;-93
2022/10/18 00:32:31;;;;;;;5.30;4.60;;;17.40;57.80;;;;;;20287;6939;281591;-94
2022/10/18 00:34:56;;;;;;;5.85;4.45;;;17.60;57.70;;;;;;20290;6924;310244;-94
2022/10/18 00:37:22;;;;;;;5.43;4.70;;;17.90;57.00;;;;;;20283;6939;314113;-95
2022/10/18 00:39:49;;;;;;;9.90;4.65;;;18.20;56.40;;;;;;20333;6925;311136;-96
2022/10/18 00:42:17;;;;;;;8.23;4.30;;;18.40;55.90;;;;;;20322;6925;341293;-95
2022/10/18 00:44:44;;;;;;;6.10;4.00;;;18.30;55.90;;;;;;20531;6925;119945;-94
2022/10/18 00:47:09;;;;;;;8.93;4.53;;;18.30;55.90;;;;;;20297;6923;439389;-95
2022/10/18 00:49:35;;;;;;;6.45;4.30;;;18.20;56.00;;;;;;20534;6923;120029;-95
2022/10/18 00:52:07;;;;;;;7.77;4.20;;;18.00;56.30;;;;;;20487;6938;120404;-95
2022/10/18 00:54:33;;;;;;;5.40;4.07;;;17.70;56.80;;;;;;20549;6924;119513;-94
2022/10/18 00:56:58;;;;;;;8.18;4.85;;;17.40;57.50;;;;;;20277;6942;304169;-95
2022/10/18 00:59:24;;;;;;;8.85;4.40;;;17.50;57.40;;;;;;20380;6925;310722;-94
2022/10/18 01:01:50;;;;;;;6.73;4.17;;;17.70;56.70;;;;;;20598;6924;120720;-94
2022/10/18 01:04:15;;;;;;;6.37;4.53;;;17.60;56.80;;;;;;20598;6924;117156;-94
2022/10/18 01:06:41;;;;;;;9.07;4.20;;;17.30;57.30;;;;;;20592;6924;119247;-95
2022/10/18 01:09:29;;;;;;;7.60;4.62;;;17.10;57.90;;;;;;20278;6939;340287;-94
2022/10/18 01:11:55;;;;;;;5.13;3.80;;;17.20;57.70;;;;;;20074;6938;118839;-95
2022/10/18 01:14:44;;;;;;;6.67;4.80;;;17.10;57.80;;;;;;20364;6925;309194;-95
2022/10/18 01:17:39;;;;;;;9.07;4.80;;;17.20;57.60;;;;;;20566;6925;120525;-94
2022/10/18 01:20:28;;;;;;;6.80;4.47;;;17.10;57.70;;;;;;20574;6925;117169;-95
2022/10/18 01:22:54;;;;;;;7.40;4.60;;;16.80;58.40;;;;;;20383;6925;282226;-94
2022/10/18 01:25:42;;;;;;;6.57;4.37;;;17.10;58.50;;;;;;20598;6924;119027;-95
2022/10/18 01:28:14;;;;;;;8.23;4.17;;;17.10;58.40;;;;;;20573;6939;121848;-95
2022/10/18 01:30:46;;;;;;;7.87;4.43;;;16.90;58.80;;;;;;20587;6925;119876;-95
2022/10/18 01:33:15;;;;;;;7.50;4.43;;;16.70;59.20;;;;;;20491;6924;120421;-95
2022/10/18 01:35:43;;;;;;;8.63;4.10;;;16.60;59.50;;;;;;20410;6939;117033;-93
2022/10/18 01:38:10;;;;;;;7.73;5.00;;;16.50;59.70;;;;;;20327;6925;310677;-94
2022/10/18 01:40:34;;;;;;;7.55;4.90;;;16.80;59.50;;;;;;20337;6924;296638;-93
2022/10/18 01:43:00;;;;;;;5.03;4.20;;;17.20;58.40;;;;;;20494;6939;120254;-94
2022/10/18 01:45:25;;;;;;;6.15;4.37;;;17.20;58.20;;;;;;20338;6925;281882;-95
2022/10/18 01:47:51;;;;;;;5.32;4.80;;;17.30;58.10;;;;;;20325;6925;301872;-95
2022/10/18 01:50:17;;;;;;;6.37;3.93;;;17.60;57.30;;;;;;20519;6924;118634;-95
2022/10/18 01:52:49;;;;;;;9.53;4.60;;;17.50;57.40;;;;;;20253;6939;281965;-94
2022/10/18 01:55:15;;;;;;;7.20;4.40;;;17.60;57.00;;;;;;20522;6925;120112;-94
2022/10/18 01:57:40;;;;;;;5.90;4.17;;;17.50;57.20;;;;;;20496;6937;117765;-95
2022/10/18 02:00:06;;;;;;;5.20;3.93;;;17.20;57.70;;;;;;20485;6938;118035;-94
2022/10/18 02:02:52;;;;;;;8.52;4.65;;;17.00;58.20;;;;;;20301;6923;283983;-93
2022/10/18 02:05:23;;;;;;;6.97;4.47;;;17.20;58.00;;;;;;20515;6938;118330;-94
2022/10/18 02:08:28;;;;;;;6.30;3.97;;;17.20;58.00;;;;;;20492;6938;120757;-94
2022/10/18 02:10:57;;;;;;;5.70;4.23;;;17.00;58.40;;;;;;20560;6923;119933;-93
2022/10/18 02:13:24;;;;;;;7.17;4.63;;;16.80;59.00;;;;;;20336;6939;280628;-94
2022/10/18 02:15:49;;;;;;;5.00;4.45;;;17.00;58.60;;;;;;20377;6925;309844;-93
2022/10/18 02:18:15;;;;;;;5.77;4.67;;;17.40;57.60;;;;;;20560;6925;117151;-94
2022/10/18 02:20:41;;;;;;;4.70;3.95;;;17.20;58.00;;;;;;20519;6924;119836;-94
2022/10/18 02:23:07;;;;;;;7.75;4.43;;;17.20;58.00;;;;;;20256;6939;327736;-94
2022/10/18 02:25:32;;;;;;;8.32;4.60;;;17.40;57.90;;;;;;20316;6925;310124;-94
2022/10/18 02:27:58;;;;;;;8.03;4.47;;;17.80;57.10;;;;;;20311;6924;312759;-94
2022/10/18 02:30:24;;;;;;;4.63;3.70;;;18.00;56.40;;;;;;20492;6939;120509;-95
2022/10/18 02:32:53;;;;;;;5.93;4.22;;;18.00;56.30;;;;;;20294;6925;338970;-94
2022/10/18 02:35:28;;;;;;;7.67;3.90;;;18.10;56.30;;;;;;20495;6924;117998;-95
2022/10/18 02:37:54;;;;;;;8.60;3.97;;;17.90;56.30;;;;;;20474;6939;120391;-93
2022/10/18 02:40:20;;;;;;;4.85;3.80;;;17.70;56.90;;;;;;20523;6925;117594;-94
2022/10/18 02:42:45;;;;;;;5.57;3.83;;;17.50;57.40;;;;;;20507;6925;119641;-95
2022/10/18 02:45:11;;;;;;;5.80;3.83;;;17.10;58.80;;;;;;20509;6924;120203;-95
2022/10/18 02:47:37;;;;;;;7.73;4.17;;;17.10;58.10;;;;;;20479;6939;120148;-94
2022/10/18 02:50:03;;;;;;;6.97;4.35;;;17.00;58.30;;;;;;20312;6925;311160;-94
2022/10/18 02:52:28;;;;;;;4.70;3.80;;;17.30;58.10;;;;;;20405;6939;117688;-95
2022/10/18 02:54:54;;;;;;;5.62;4.53;;;17.30;57.80;;;;;;20271;6925;321963;-94
2022/10/18 02:57:19;;;;;;;8.03;4.30;;;17.50;57.50;;;;;;20466;6939;120161;-94
2022/10/18 02:59:45;;;;;;;7.80;4.30;;;17.60;57.50;;;;;;20300;6925;281267;-93
2022/10/18 03:02:10;;;;;;;8.13;3.77;;;17.70;57.00;;;;;;20483;6939;120210;-94
2022/10/18 03:04:36;;;;;;;9.05;4.10;;;17.60;56.90;;;;;;20316;6925;296997;-95
2022/10/18 03:07:02;;;;;;;5.77;3.97;;;17.70;56.80;;;;;;20464;6939;119879;-94
2022/10/18 03:09:27;;;;;;;6.18;4.18;;;17.60;56.90;;;;;;20303;6923;313189;-95
2022/10/18 03:11:53;;;;;;;4.28;3.72;;;17.70;56.80;;;;;;20530;6923;119789;-93
2022/10/18 03:14:18;;;;;;;9.30;4.30;;;17.60;57.00;;;;;;20482;6938;117914;-95
2022/10/18 03:16:44;;;;;;;4.60;4.07;;;17.30;57.40;;;;;;20523;6923;118055;-94
2022/10/18 03:19:09;;;;;;;6.05;4.40;;;17.10;57.80;;;;;;20259;6938;311943;-95
2022/10/18 03:21:35;;;;;;;4.30;3.90;;;17.30;57.60;;;;;;20318;6925;282750;-95
2022/10/18 03:24:01;;;;;;;6.05;4.28;;;17.60;57.10;;;;;;20319;6924;283522;-96
2022/10/18 03:26:26;;;;;;;9.52;4.35;;;17.90;56.40;;;;;;20290;6923;305266;-96
2022/10/18 03:28:52;;;;;;;7.90;4.30;;;18.10;55.80;;;;;;20274;6939;281622;-95
2022/10/18 03:31:17;;;;;;;6.07;4.07;;;18.20;55.40;;;;;;20536;6924;116405;-95
2022/10/18 03:33:43;;;;;;;6.47;3.92;;;17.90;55.70;;;;;;20493;6939;118073;-94
2022/10/18 03:36:09;;;;;;;7.13;4.00;;;17.60;56.50;;;;;;20529;6925;116854;-94
2022/10/18 03:38:34;;;;;;;7.57;4.60;;;17.30;57.10;;;;;;20528;6925;116764;-94
2022/10/18 03:41:00;;;;;;;8.67;4.40;;;17.00;57.60;;;;;;20516;6925;120202;-94
2022/10/18 03:43:25;;;;;;;7.93;4.07;;;16.90;58.10;;;;;;20529;6925;120033;-95
2022/10/18 03:45:52;;;;;;;7.70;4.18;;;16.70;58.30;;;;;;20540;6924;119894;-94
2022/10/18 03:48:18;;;;;;;6.60;4.67;;;16.60;58.60;;;;;;20271;6939;280776;-93
2022/10/18 03:50:45;;;;;;;5.27;4.80;;;16.80;58.20;;;;;;20308;6925;311440;-95
2022/10/18 03:53:10;;;;;;;5.90;4.70;;;17.20;57.50;;;;;;20300;6925;281486;-94
2022/10/18 03:55:36;;;;;;;8.23;4.35;;;17.50;56.80;;;;;;20529;6925;117969;-94
2022/10/18 03:58:01;;;;;;;6.57;4.80;;;17.40;56.90;;;;;;20301;6924;310748;-95
2022/10/18 04:00:27;;;;;;;4.95;4.10;;;17.50;56.70;;;;;;20532;6924;116768;-94
2022/10/18 04:02:52;;;;;;;6.13;4.50;;;17.40;56.90;;;;;;20465;6939;121125;-94
2022/10/18 04:05:18;;;;;;;7.03;4.68;;;17.10;57.30;;;;;;20318;6925;312780;-94
2022/10/18 04:07:44;;;;;;;4.22;3.83;;;17.20;57.10;;;;;;20531;6925;117849;-95
2022/10/18 04:10:09;;;;;;;4.30;3.90;;;17.20;57.20;;;;;;20548;6925;119921;-94
2022/10/18 04:12:35;;;;;;;4.40;4.10;;;17.00;57.60;;;;;;20560;6925;116672;-93
2022/10/18 04:15:00;;;;;;;6.28;4.82;;;16.80;58.10;;;;;;20368;6924;279094;-94
2022/10/18 04:17:26;;;;;;;4.93;4.40;;;16.90;57.80;;;;;;20539;6939;117327;-95
2022/10/18 04:19:51;;;;;;;5.68;4.37;;;16.90;57.50;;;;;;20341;6925;280501;-94
2022/10/18 04:22:17;;;;;;;5.70;4.40;;;17.10;57.30;;;;;;20499;6937;121941;-92
2022/10/18 04:24:42;;;;;;;4.90;4.50;;;17.00;57.20;;;;;;20315;6924;281354;-96
2022/10/18 04:27:08;;;;;;;4.35;3.95;;;17.20;57.10;;;;;;20519;6924;120362;-95
2022/10/18 04:29:34;;;;;;;5.43;3.97;;;16.90;57.70;;;;;;20536;6924;120420;-95
2022/10/18 04:32:01;;;;;;;4.90;4.40;;;16.90;57.70;;;;;;20320;6924;283771;-95
2022/10/18 04:34:26;;;;;;;11.13;4.60;;;17.10;57.70;;;;;;20526;6924;117756;-95
2022/10/18 04:36:53;;;;;;;4.90;4.50;;;17.00;57.60;;;;;;20510;6924;120081;-95
2022/10/18 04:39:18;;;;;;;4.57;4.20;;;16.90;58.00;;;;;;20531;6924;117744;-95
2022/10/18 04:41:43;;;;;;;4.35;3.70;;;16.70;58.40;;;;;;20527;6925;120182;-94
2022/10/18 04:44:09;;;;;;;3.75;3.45;;;16.60;58.60;;;;;;20529;6925;117793;-96
2022/10/18 04:46:34;;;;;;;4.62;3.47;;;16.60;58.80;;;;;;20524;6925;117584;-95
2022/10/18 04:49:00;;;;;;;5.82;3.78;;;16.50;59.00;;;;;;20302;6925;280663;-95
2022/10/18 04:51:29;;;;;;;4.27;3.80;;;16.80;58.30;;;;;;20526;6924;119761;-95
2022/10/18 04:53:54;;;;;;;4.50;3.40;;;16.90;58.00;;;;;;20472;6939;117943;-95
2022/10/18 04:56:20;;;;;;;4.55;4.00;;;17.00;57.40;;;;;;20309;6925;311675;-94
2022/10/18 04:58:47;;;;;;;6.60;4.53;;;17.40;56.40;;;;;;20311;6925;312570;-95
2022/10/18 05:01:12;;;;;;;5.97;4.10;;;17.40;56.70;;;;;;20260;6939;313987;-95
2022/10/18 05:03:38;;;;;;;4.20;3.83;;;17.70;55.90;;;;;;20506;6925;117672;-95
2022/10/18 05:06:04;;;;;;;4.73;4.27;;;17.60;56.00;;;;;;20319;6925;310238;-94
2022/10/18 05:08:30;;;;;;;4.70;4.00;;;17.90;54.80;;;;;;20260;6939;310762;-93
2022/10/18 05:10:55;;;;;;;5.28;3.95;;;17.90;55.20;;;;;;20293;6925;340349;-93
2022/10/18 05:13:21;;;;;;;5.30;4.17;;;18.10;54.90;;;;;;20318;6924;310702;-93
2022/10/18 05:15:47;;;;;;;6.20;4.47;;;18.30;54.00;;;;;;20267;6939;282349;-93
2022/10/18 05:18:14;;;;;;;8.63;4.23;;;18.30;54.00;;;;;;20312;6925;312976;-92
2022/10/18 05:20:40;;;;;;;5.15;4.10;;;18.40;53.80;;;;;;20321;6925;311430;-93
2022/10/18 05:23:05;;;;;;;5.10;4.60;;;18.50;53.80;;;;;;20302;6925;311101;-93
2022/10/18 05:25:31;;;;;;;4.37;3.97;;;18.50;54.00;;;;;;20321;6925;310220;-91
2022/10/18 05:27:56;;;;;;;4.28;3.62;;;18.60;53.90;;;;;;20532;6925;120235;-93
2022/10/18 05:30:22;;;;;;;4.30;3.90;;;18.30;54.20;;;;;;20322;6925;280622;-92
2022/10/18 05:32:47;;;;;;;6.75;4.25;;;18.20;54.50;;;;;;20314;6923;281910;-91
2022/10/18 05:35:13;;;;;;;4.57;4.03;;;18.30;54.30;;;;;;20283;6924;281290;-93
2022/10/18 05:37:40;;;;;;;7.43;4.07;;;18.40;54.20;;;;;;20314;6924;312545;-93
2022/10/18 05:40:06;;;;;;;5.63;4.23;;;18.50;54.00;;;;;;20520;6924;120171;-93
2022/10/18 05:42:31;;;;;;;3.03;2.83;;;18.20;54.40;;;;;;20317;6924;280947;-93
2022/10/18 05:44:57;;;;;;;7.53;3.53;;;18.20;55.80;;;;;;20292;6923;324120;-92
2022/10/18 05:47:22;;;;;;;4.73;3.60;;;18.40;56.20;;;;;;20466;6939;120464;-93
2022/10/18 05:49:48;;;;;;;3.83;3.53;;;18.30;56.00;;;;;;20309;6925;310629;-93
2022/10/18 05:52:13;;;;;;;4.13;3.53;;;18.40;55.00;;;;;;20483;6939;118141;-93
2022/10/18 05:54:39;;;;;;;4.32;3.53;;;18.40;55.20;;;;;;20333;6925;282732;-91
2022/10/18 05:57:05;;;;;;;8.30;3.70;;;18.50;54.70;;;;;;20340;6924;281627;-92
2022/10/18 05:59:57;;;;;;;8.93;3.60;;;18.80;54.20;;;;;;20476;6939;118640;-94
2022/10/18 06:02:28;;;;;;;4.33;3.93;;;18.70;54.10;;;;;;20619;6832;117893;-87
2022/10/18 06:05:04;;;;;;;6.95;4.40;;;18.30;54.20;;;;;;20398;6826;278957;-85
2022/10/18 06:07:43;;;;;;;5.87;4.20;;;18.30;53.70;;;;;;20337;6828;319575;-85
2022/10/18 06:10:18;;;;;;;4.20;3.80;;;18.40;53.50;;;;;;20482;6813;121871;-93
2022/10/18 06:13:29;;;;;;;6.40;3.80;;;18.00;54.00;;;;;;21451;6573;148430;-89
2022/10/18 06:15:56;;;;;;;5.33;3.90;;;17.70;54.50;;;;;;20848;6791;116126;-88
2022/10/18 06:18:20;;;;;;;6.47;3.90;;;17.40;55.20;;;;;;20721;6848;118343;-90
2022/10/18 06:20:46;;;;;;;8.25;4.80;;;17.10;55.80;;;;;;20503;6844;311463;-89
2022/10/18 06:23:12;;;;;;;6.03;4.40;;;17.30;56.30;;;;;;20496;6844;311932;-89
2022/10/18 06:25:37;;;;;;;7.20;4.80;;;17.60;56.00;;;;;;20523;6844;278540;-89
2022/10/18 06:28:03;;;;;;;6.43;4.57;;;17.80;55.50;;;;;;20517;6844;309330;-88
2022/10/18 06:30:29;;;;;;;4.70;4.10;;;17.80;55.50;;;;;;20733;6844;121786;-88
2022/10/18 06:32:55;;;;;;;6.57;4.03;;;17.80;55.50;;;;;;20688;6845;118811;-89
2022/10/18 06:35:22;;;;;;;8.20;4.37;;;17.60;55.70;;;;;;20507;6845;278966;-89
2022/10/18 06:37:47;;;;;;;4.37;3.87;;;17.70;56.30;;;;;;20737;6845;117744;-88
2022/10/18 06:40:13;;;;;;;5.47;4.18;;;17.80;56.50;;;;;;20530;6845;308153;-89
2022/10/18 06:42:41;;;;;;;6.23;4.00;;;18.00;56.30;;;;;;20754;6845;68281;-90
2022/10/18 06:45:06;;;;;;;5.20;3.70;;;18.20;56.40;;;;;;20676;6855;117695;-89
2022/10/18 06:47:32;;;;;;;4.45;4.05;;;18.40;56.00;;;;;;20481;6855;337692;-89
2022/10/18 06:49:58;;;;;;;4.13;3.77;;;18.40;56.00;;;;;;20739;6840;118318;-87
2022/10/18 06:52:24;;;;;;;5.23;3.80;;;18.50;56.10;;;;;;20737;6840;119775;-89
2022/10/18 06:54:51;;;;;;;5.87;3.90;;;18.50;56.10;;;;;;20740;6840;117321;-88
2022/10/18 06:57:17;;;;;;;6.43;3.67;;;18.50;56.30;;;;;;20724;6840;118289;-90
2022/10/18 06:59:43;;;;;;;4.05;3.55;;;18.40;56.30;;;;;;20746;6840;123208;-87
2022/10/18 07:02:09;;;;;;;4.83;3.47;;;18.30;56.50;;;;;;20745;6840;117734;-91
2022/10/18 07:04:35;;;;;;;4.97;3.70;;;18.30;56.60;;;;;;20716;6840;117230;-87
2022/10/18 07:07:00;;;;;;;5.23;4.10;;;18.20;57.30;;;;;;20490;6840;308555;-89
2022/10/18 07:09:26;;;;;;;6.37;3.83;;;18.40;56.00;;;;;;20743;6840;117832;-87
2022/10/18 07:11:52;;;;;;;5.12;3.83;;;18.50;56.70;;;;;;20741;6840;118587;-90
2022/10/18 07:14:17;;;;;;;4.03;3.43;;;18.30;56.30;;;;;;20743;6840;117761;-88
2022/10/18 07:16:42;;;;;;;5.10;3.87;;;18.20;56.50;;;;;;20746;6840;117660;-89
2022/10/18 07:19:08;;;;;;;4.67;3.87;;;18.10;56.80;;;;;;20725;6840;118594;-88
2022/10/18 07:21:33;;;;;;;6.03;4.00;;;18.00;57.00;;;;;;20536;6840;281945;-87
2022/10/18 07:23:59;;;;;;;5.00;3.70;;;18.30;57.10;;;;;;20741;6839;118734;-88
2022/10/18 07:26:28;;;;;;;6.45;4.00;;;18.40;56.90;;;;;;20534;6840;278052;-86
2022/10/18 07:28:56;;;;;;;6.23;3.90;;;18.60;56.40;;;;;;20733;6840;117491;-88
2022/10/18 07:31:23;;;;;;;5.90;4.12;;;18.70;56.50;;;;;;20517;6840;308450;-88
2022/10/18 07:33:49;;;;;;;6.18;5.15;;;18.80;56.00;;;;;;20515;6840;338128;-89
2022/10/18 07:36:14;;;;;;;7.20;4.20;;;19.10;55.30;;;;;;20532;6840;282605;-89
2022/10/18 07:38:43;;;;;;;4.82;3.80;;;19.50;55.00;;;;;;20521;6840;308043;-89
2022/10/18 07:41:10;;;;;;;7.70;3.80;;;19.70;54.70;;;;;;20504;6840;307644;-88
2022/10/18 07:43:35;;;;;;;8.27;4.10;;;19.80;54.50;;;;;;20520;6840;307642;-89
2022/10/18 07:46:03;;;;;;;4.50;4.10;;;19.70;54.70;;;;;;20733;6840;118011;-89
2022/10/18 07:48:28;;;;;;;9.53;4.13;;;19.70;54.50;;;;;;20733;6840;117582;-88
2022/10/18 07:50:58;;;;;;;5.73;3.50;;;19.10;55.70;;;;;;20715;6840;118893;-86
2022/10/18 07:53:25;;;;;;;4.70;3.40;;;19.10;55.70;;;;;;20736;6840;117963;-88
2022/10/18 07:55:50;;;;;;;6.47;4.07;;;18.90;56.10;;;;;;20511;6840;284734;-89
2022/10/18 07:58:18;;;;;;;4.20;3.80;;;19.10;55.70;;;;;;20741;6840;118773;-89
2022/10/18 08:00:43;;;;;;;6.53;4.35;;;19.10;55.70;;;;;;20529;6840;283629;-89
2022/10/18 08:03:09;;;;;;;5.93;4.32;;;19.30;55.50;;;;;;20512;6840;280675;-89
2022/10/18 08:05:34;;;;;;;4.90;3.93;;;19.60;54.80;;;;;;20722;6840;117446;-88
2022/10/18 08:08:00;;;;;;;4.65;4.03;;;19.60;54.90;;;;;;20547;6840;278529;-88
2022/10/18 08:10:26;;;;;;;5.93;3.90;;;19.90;54.30;;;;;;20557;6840;314854;-89
2022/10/18 08:12:52;;;;;;;4.97;3.90;;;19.90;54.30;;;;;;20739;6840;117303;-89
2022/10/18 08:15:20;;;;;;;8.17;3.80;;;19.70;55.00;;;;;;20708;6840;118173;-91
2022/10/18 08:17:44;;;;;;;7.40;4.30;;;19.70;55.00;;;;;;20729;6840;118397;-88
2022/10/18 08:20:11;;;;;;;4.35;3.75;;;19.50;55.50;;;;;;20539;6840;277509;-88
2022/10/18 08:22:36;;;;;;;7.90;3.70;;;19.70;55.90;;;;;;20836;6840;67454;-87
2022/10/18 08:25:03;;;;;;;6.43;3.55;;;19.80;55.80;;;;;;20795;6840;116698;-87
2022/10/18 08:27:28;;;;;;;3.97;3.60;;;19.80;56.20;;;;;;20825;6840;67382;-87
2022/10/18 08:30:00;;;;;;;3.83;3.47;;;19.90;56.40;;;;;;20825;6840;67878;-87
2022/10/18 08:32:26;;;;;;;8.83;3.90;;;19.90;56.90;;;;;;20822;6840;67880;-87
2022/10/18 08:34:51;;;;;;;5.12;3.50;;;19.90;56.20;;;;;;20819;6839;68038;-88
2022/10/18 08:37:16;;;;;;;5.93;3.80;;;20.00;56.30;;;;;;20792;6840;115900;-85
2022/10/18 08:39:41;;;;;;;7.10;3.97;;;19.90;56.20;;;;;;20798;6840;116441;-88
2022/10/18 08:42:17;;;;;;;3.90;3.60;;;20.00;56.40;;;;;;20815;6840;117548;-87
2022/10/18 08:44:46;;;;;;;5.67;3.20;;;20.00;56.70;;;;;;20795;6840;118382;-87
2022/10/18 08:47:13;;;;;;;8.50;4.10;;;20.00;56.60;;;;;;20568;6840;307605;-86
2022/10/18 08:49:52;;;;;;;5.95;3.92;;;20.30;56.50;;;;;;20567;6840;336544;-85
2022/10/18 08:52:37;;;;;;;4.07;3.67;;;20.60;55.60;;;;;;20704;6840;117189;-89
2022/10/18 08:55:39;;;;;;;4.50;3.77;;;20.70;55.60;;;;;;20720;6840;117251;-87
2022/10/18 08:58:16;;;;;;;7.33;3.57;;;20.40;56.00;;;;;;20807;6840;116588;-85
2022/10/18 09:00:41;;;;;;;6.80;3.73;;;20.50;56.10;;;;;;20542;6840;278140;-86
2022/10/18 09:03:16;;;;;;;3.87;3.58;;;20.70;56.00;;;;;;20494;6840;308549;-87
2022/10/18 09:06:18;;;;;;;4.40;3.40;;;21.10;54.70;;;;;;20732;6840;117679;-88
2022/10/18 09:09:10;;;;;;;4.22;3.83;;;21.30;54.80;;;;;;20520;6840;282161;-88
2022/10/18 09:11:42;;;;;;;5.83;4.13;;;21.60;54.70;;;;;;20479;6840;278560;-86
2022/10/18 09:14:38;;;;;;;4.72;3.70;;;22.60;53.50;;;;;;20495;6840;338491;-85
2022/10/18 09:17:10;;;;;;;4.18;3.78;;;22.50;52.70;;;;;;20478;6840;330459;-88
2022/10/18 09:19:53;;;;;;;7.95;3.95;;;23.00;51.40;;;;;;20524;6840;338057;-87
2022/10/18 09:22:15;;;;;;;5.17;3.70;;;23.20;51.00;;;;;;20717;6840;117804;-89
2022/10/18 09:24:47;;;;;;;3.70;3.40;;;23.10;51.40;;;;;;20739;6840;117811;-88
2022/10/18 09:27:20;;;;;;;4.60;4.03;;;22.80;51.70;;;;;;20693;6840;118163;-89
2022/10/18 09:29:56;;;;;;;4.13;3.83;;;22.60;52.20;;;;;;20501;6840;307639;-89
2022/10/18 09:32:44;;;;;;;4.05;3.65;;;22.70;51.50;;;;;;20508;6840;314035;-90
2022/10/18 09:35:19;;;;;;;4.47;4.07;;;23.00;51.20;;;;;;20497;6840;312066;-89
2022/10/18 09:37:45;;;;;;;5.03;3.60;;;23.20;51.10;;;;;;20510;6840;290415;-88
2022/10/18 09:40:16;;;;;;;5.83;3.60;;;23.30;50.90;;;;;;20521;6840;279073;-89
2022/10/18 09:42:42;;;;;;;4.67;3.47;;;23.40;50.10;;;;;;20518;6840;283579;-89
2022/10/18 09:45:07;;;;;;;4.63;3.30;;;23.40;49.30;;;;;;20679;6840;118729;-89
2022/10/18 09:47:36;;;;;;;5.30;3.90;;;23.20;49.80;;;;;;20335;6839;279357;-88
2022/10/18 09:50:02;;;;;;;4.27;3.87;;;23.00;50.50;;;;;;20726;6840;121083;-88
2022/10/18 09:52:31;;;;;;;5.10;3.93;;;23.00;50.40;;;;;;20479;6840;278552;-89
2022/10/18 09:54:57;;;;;;;5.62;3.60;;;23.00;50.00;;;;;;20482;6840;334565;-88
2022/10/18 09:57:32;;;;;;;4.37;3.40;;;23.10;50.00;;;;;;20730;6840;118505;-89
2022/10/18 09:59:58;;;;;;;4.13;3.73;;;22.90;50.10;;;;;;20507;6840;278068;-90
2022/10/18 10:02:23;;;;;;;5.40;3.57;;;22.90;50.20;;;;;;20730;6840;117490;-88
2022/10/18 10:04:49;;;;;;;4.50;3.50;;;22.70;50.30;;;;;;20529;6840;296433;-89
2022/10/18 10:07:20;;;;;;;4.37;3.17;;;22.60;50.30;;;;;;20721;6840;119742;-89
2022/10/18 10:09:46;;;;;;;3.83;3.50;;;22.60;50.30;;;;;;20517;6840;307518;-87
2022/10/18 10:12:24;;;;;;;3.77;3.47;;;22.70;50.30;;;;;;20733;6840;119133;-85
2022/10/18 10:14:50;;;;;;;5.47;3.60;;;22.70;50.70;;;;;;20437;6840;279465;-84
2022/10/18 10:17:25;;;;;;;3.93;3.50;;;22.80;50.90;;;;;;20507;6840;295972;-84
2022/10/18 10:20:18;;;;;;;3.83;3.43;;;23.10;51.10;;;;;;20520;6840;307562;-84
2022/10/18 10:22:43;;;;;;;4.20;3.60;;;23.40;50.50;;;;;;20495;6840;337828;-84
2022/10/18 10:25:19;;;;;;;4.83;3.50;;;23.70;49.90;;;;;;20721;6840;117232;-84
2022/10/18 10:27:44;;;;;;;6.03;3.53;;;23.60;50.10;;;;;;20726;6840;117945;-84
2022/10/18 10:30:20;;;;;;;3.12;2.90;;;23.40;50.50;;;;;;20721;6840;119684;-84
2022/10/18 10:32:46;;;;;;;3.63;3.33;;;23.20;50.80;;;;;;20545;6840;278256;-89
2022/10/18 10:35:29;;;;;;;4.73;3.07;;;23.40;49.90;;;;;;20723;6840;118076;-88
2022/10/18 10:37:53;;;;;;;8.00;3.23;;;23.40;50.10;;;;;;20734;6840;118399;-87
2022/10/18 10:40:22;;;;;;;3.33;3.10;;;23.20;50.50;;;;;;20731;6840;117920;-86
2022/10/18 10:43:04;;;;;;;4.60;3.07;;;23.10;51.00;;;;;;20737;6840;118948;-87
2022/10/18 10:45:32;;;;;;;5.13;3.13;;;23.00;51.20;;;;;;20496;6840;308470;-89
2022/10/18 10:48:04;;;;;;;4.83;3.10;;;23.20;50.80;;;;;;20724;6840;117408;-87
2022/10/18 10:50:30;;;;;;;4.70;3.25;;;23.40;50.80;;;;;;20504;6840;338728;-88
2022/10/18 10:52:55;;;;;;;3.97;2.83;;;23.60;50.80;;;;;;20699;6840;117217;-87
2022/10/18 10:55:21;;;;;;;5.85;3.58;;;23.60;49.90;;;;;;20486;6840;294282;-90
2022/10/18 10:57:48;;;;;;;4.78;3.03;;;23.80;50.00;;;;;;20736;6839;117476;-88
2022/10/18 11:00:34;;;;;;;3.87;3.17;;;24.00;49.10;;;;;;20529;6840;283679;-89
2022/10/18 11:03:14;;;;;;;4.10;3.60;;;24.00;49.10;;;;;;20709;6840;117785;-90
2022/10/18 11:05:53;;;;;;;4.93;3.33;;;23.90;49.60;;;;;;20747;6840;117674;-89
2022/10/18 11:08:21;;;;;;;4.57;3.17;;;23.80;50.30;;;;;;20747;6840;118657;-89
2022/10/18 11:10:47;;;;;;;5.73;3.00;;;23.70;51.40;;;;;;20738;6840;118483;-89
2022/10/18 11:13:38;;;;;;;5.63;3.20;;;23.60;50.90;;;;;;20629;6840;125805;-88
2022/10/18 11:16:06;;;;;;;6.85;3.25;;;23.50;51.00;;;;;;20512;6840;307723;-88
2022/10/18 11:18:35;;;;;;;3.50;3.20;;;23.70;50.00;;;;;;20516;6840;285442;-87
2022/10/18 11:21:09;;;;;;;4.37;3.37;;;24.10;49.60;;;;;;20706;6840;117637;-88
2022/10/18 11:23:31;;;;;;;3.40;3.17;;;24.00;49.50;;;;;;20733;6840;117225;-89
2022/10/18 11:26:11;;;;;;;7.97;3.22;;;23.90;49.50;;;;;;20597;6840;277724;-84
2022/10/18 11:29:03;;;;;;;4.63;3.20;;;24.10;50.00;;;;;;20796;6840;116227;-85
2022/10/18 11:31:38;;;;;;;3.53;3.22;;;24.20;50.00;;;;;;20540;6840;301424;-85
2022/10/18 11:34:08;;;;;;;3.17;2.93;;;24.60;49.80;;;;;;20742;6840;117241;-86
2022/10/18 11:36:57;;;;;;;3.20;2.93;;;24.50;49.70;;;;;;20709;6840;117896;-85
2022/10/18 11:39:49;;;;;;;3.37;2.83;;;24.80;49.80;;;;;;20537;6840;298626;-86
2022/10/18 11:42:19;;;;;;;3.57;3.00;;;24.90;50.00;;;;;;20763;6840;117521;-85
2022/10/18 11:45:08;;;;;;;4.50;3.17;;;24.80;49.30;;;;;;20724;6840;117167;-85
2022/10/18 11:47:37;;;;;;;4.87;3.10;;;24.80;49.40;;;;;;20730;6840;116614;-83
2022/10/18 11:50:29;;;;;;;5.70;3.03;;;24.60;49.30;;;;;;20528;6840;309040;-84
2022/10/18 11:52:55;;;;;;;3.40;3.07;;;24.80;48.30;;;;;;20543;6840;294283;-84
2022/10/18 11:55:33;;;;;;;6.17;2.90;;;25.10;47.50;;;;;;20728;6840;117571;-84
2022/10/18 11:57:59;;;;;;;3.40;2.97;;;25.10;47.70;;;;;;20573;6840;292165;-88
2022/10/18 12:00:55;;;;;;;3.45;3.00;;;25.20;47.20;;;;;;20559;6840;295671;-88
2022/10/18 12:03:24;;;;;;;5.00;2.80;;;25.20;46.80;;;;;;20771;6840;117561;-87
2022/10/18 12:05:49;;;;;;;3.75;2.80;;;25.00;47.20;;;;;;20527;6840;309281;-88
2022/10/18 12:08:16;;;;;;;4.57;2.50;;;24.90;47.10;;;;;;20698;6840;118586;-88
2022/10/18 12:10:42;;;;;;;4.80;3.20;;;24.80;47.80;;;;;;20533;6839;278147;-87
2022/10/18 12:13:09;;;;;;;4.67;2.77;;;24.70;47.70;;;;;;20709;6840;117617;-88
2022/10/18 12:15:35;;;;;;;3.58;2.90;;;24.70;47.70;;;;;;20503;6840;337546;-87
2022/10/18 12:18:15;;;;;;;3.30;3.00;;;24.70;47.90;;;;;;20717;6840;117315;-87
2022/10/18 12:20:40;;;;;;;2.90;2.67;;;24.60;47.80;;;;;;20726;6840;119112;-88
2022/10/18 12:23:19;;;;;;;2.83;2.60;;;24.40;48.30;;;;;;20721;6840;123251;-88
2022/10/18 12:25:46;;;;;;;4.37;2.90;;;24.20;48.90;;;;;;20759;6840;79502;-88
2022/10/18 12:28:31;;;;;;;3.90;2.50;;;24.00;50.00;;;;;;20534;6840;278918;-88
2022/10/18 12:31:26;;;;;;;8.30;2.60;;;24.20;48.80;;;;;;20717;6840;118282;-88
2022/10/18 12:33:52;;;;;;;7.20;2.47;;;24.20;48.90;;;;;;20729;6840;117558;-88
2022/10/18 12:36:17;;;;;;;3.87;2.40;;;24.00;49.20;;;;;;20738;6840;118018;-88
2022/10/18 12:38:44;;;;;;;3.15;2.20;;;23.90;49.30;;;;;;20697;6840;117362;-88
2022/10/18 12:41:29;;;;;;;1.90;1.80;;;23.80;49.40;;;;;;20721;6840;117186;-89
2022/10/18 12:43:57;;;;;;;3.77;2.30;;;24.10;48.50;;;;;;20527;6840;278889;-88
2022/10/18 12:46:22;;;;;;;2.77;2.00;;;24.10;48.50;;;;;;20493;6840;312386;-89
2022/10/18 12:48:48;;;;;;;2.37;2.17;;;24.50;46.90;;;;;;20531;6840;283015;-88